Notice: Undefined index: language in /storage/ssd3/513/4781513/public_html/vam/index.php on line 25
IF United Virtual

www.000webhost.com
 METAR AND TAF INFORMATION
METAR FOR KBUF
ADDS - METARS form results

(2219 UTC 18 March 2019)
Data provider http://aviationweather.gov/metar/data/
 
METAR text: KBUF 182154Z 25014KT 9SM FEW015 SCT020 BKN037 00/M03 A3028 RMK AO2 SNE52 SLP264 P0000 T00001028
Conditions at: KBUF (BUFFALO/CHEEKTOW, NY, US) observed 2154 UTC 18 March 2019
Temperature: 0.0°C (32°F)
Dewpoint: -2.8°C (27°F) [RH = 81%]
Pressure (altimeter): 30.28 inches Hg (1025.5 mb)
[Sea-level pressure: 1026.4 mb]
Winds: from the WSW (250 degrees) at 16 MPH (14 knots; 7.2 m/s)
Visibility: 9 miles (14 km)
Ceiling: 3700 feet AGL
Clouds: few clouds at 1500 feet AGL
scattered clouds at 2000 feet AGL
broken clouds at 3700 feet AGL
Weather: no significant weather observed at this time

METAR text: KBUF 182152Z 24014G20KT 9SM FEW015 SCT020 BKN037 00/M03 A3028 RMK AO2 SNE52 P0000
Conditions at: KBUF (BUFFALO/CHEEKTOW, NY, US) observed 2152 UTC 18 March 2019
Temperature: 0.0°C (32°F)
Dewpoint: -3.0°C (27°F) [RH = 80%]
Pressure (altimeter): 30.28 inches Hg (1025.5 mb)
Winds: from the WSW (240 degrees) at 16 MPH (14 knots; 7.2 m/s)
gusting to 23 MPH (20 knots; 10.3 m/s)
Visibility: 9 miles (14 km)
Ceiling: 3700 feet AGL
Clouds: few clouds at 1500 feet AGL
scattered clouds at 2000 feet AGL
broken clouds at 3700 feet AGL
Weather: no significant weather observed at this time

METAR text: KBUF 182130Z 23013G22KT 3SM R23/5000VP6000FT -SN BKN021 OVC039 00/M03 A3028 RMK AO2 P0000 T00001028
Conditions at: KBUF (BUFFALO/CHEEKTOW, NY, US) observed 2130 UTC 18 March 2019
Temperature: 0.0°C (32°F)
Dewpoint: -2.8°C (27°F) [RH = 81%]
Pressure (altimeter): 30.28 inches Hg (1025.5 mb)
Winds: from the SW (230 degrees) at 15 MPH (13 knots; 6.7 m/s)
gusting to 25 MPH (22 knots; 11.3 m/s)
Visibility: 3 miles ( 5 km)
Ceiling: 2100 feet AGL
Clouds: broken clouds at 2100 feet AGL
overcast cloud deck at 3900 feet AGL
Weather: -SN  (light snow)

METAR text: KBUF 182123Z 24012G22KT 1 1/2SM R23/5000VP6000FT -SN BKN021 OVC039 00/M03 A3027 RMK AO2 VIS 1V5 P0000 T00001028
Conditions at: KBUF (BUFFALO/CHEEKTOW, NY, US) observed 2123 UTC 18 March 2019
Temperature: 0.0°C (32°F)
Dewpoint: -2.8°C (27°F) [RH = 81%]
Pressure (altimeter): 30.27 inches Hg (1025.1 mb)
Winds: from the WSW (240 degrees) at 14 MPH (12 knots; 6.2 m/s)
gusting to 25 MPH (22 knots; 11.3 m/s)
Visibility: 1.50 miles (2.41 km)
Ceiling: 2100 feet AGL
Clouds: broken clouds at 2100 feet AGL
overcast cloud deck at 3900 feet AGL
Weather: -SN  (light snow)

METAR text: KBUF 182120Z 24015G21KT 2 1/2SM R23/5000VP6000FT -SN BKN021 BKN030 OVC039 00/M03 A3027 RMK AO2 P0000 T00001028
Conditions at: KBUF (BUFFALO/CHEEKTOW, NY, US) observed 2120 UTC 18 March 2019
Temperature: 0.0°C (32°F)
Dewpoint: -2.8°C (27°F) [RH = 81%]
Pressure (altimeter): 30.27 inches Hg (1025.1 mb)
Winds: from the WSW (240 degrees) at 17 MPH (15 knots; 7.7 m/s)
gusting to 24 MPH (21 knots; 10.8 m/s)
Visibility: 2.50 miles (4.02 km)
Ceiling: 2100 feet AGL
Clouds: broken clouds at 2100 feet AGL
broken clouds at 3000 feet AGL
overcast cloud deck at 3900 feet AGL
Weather: -SN  (light snow)

Forecast for: KBUF (BUFFALO/CHEEKTOW, NY, US)
Text: KBUF 182105Z 1821/1918 24015G21KT 4SM -SHSN BKN030 BKN045
Forecast period: 2100 to 2200 UTC 18 March 2019
Forecast type: FROM: standard forecast or significant change
Winds: from the WSW (240 degrees) at 17 MPH (15 knots; 7.7 m/s)
gusting to 24 MPH (21 knots; 10.8 m/s)
Visibility: 4 miles (6 km)
Ceiling: 3000 feet AGL
Clouds: broken clouds at 3000 feet AGL
broken clouds at 4500 feet AGL
Weather: -SHSN  (light snow showers)
Text: FM182200 24010KT P6SM OVC035
Forecast period: 2200 UTC 18 March 2019 to 0000 UTC 19 March 2019
Forecast type: FROM: standard forecast or significant change
Winds: from the WSW (240 degrees) at 12 MPH (10 knots; 5.1 m/s)
Visibility: 6 or more miles 10+ km)
Ceiling: 3500 feet AGL
Clouds: overcast cloud deck at 3500 feet AGL
Weather: no significant weather forecast for this period
Text: FM190000 23010KT P6SM SCT035
Forecast period: 0000 to 0600 UTC 19 March 2019
Forecast type: FROM: standard forecast or significant change
Winds: from the SW (230 degrees) at 12 MPH (10 knots; 5.1 m/s)
Visibility: 6 or more miles 10+ km)
Ceiling: at least 12,000 feet AGL
Clouds: scattered clouds at 3500 feet AGL
Weather: no significant weather forecast for this period
Text: FM190600 21005KT 6SM -SHSN BKN040
Forecast period: 0600 to 1200 UTC 19 March 2019
Forecast type: FROM: standard forecast or significant change
Winds: from the SSW (210 degrees) at 6 MPH (5 knots; 2.6 m/s)
Visibility: 6 miles (10 km)
Ceiling: 4000 feet AGL
Clouds: broken clouds at 4000 feet AGL
Weather: -SHSN  (light snow showers)
Text: FM191200 21005KT P6SM SCT040
Forecast period: 1200 to 1600 UTC 19 March 2019
Forecast type: FROM: standard forecast or significant change
Winds: from the SSW (210 degrees) at 6 MPH (5 knots; 2.6 m/s)
Visibility: 6 or more miles 10+ km)
Ceiling: at least 12,000 feet AGL
Clouds: scattered clouds at 4000 feet AGL
Weather: no significant weather forecast for this period
Text: FM191600 24010G16KT P6SM SCT045
Forecast period: 1600 to 1800 UTC 19 March 2019
Forecast type: FROM: standard forecast or significant change
Winds: from the WSW (240 degrees) at 12 MPH (10 knots; 5.1 m/s)
gusting to 18 MPH (16 knots; 8.2 m/s)
Visibility: 6 or more miles 10+ km)
Ceiling: at least 12,000 feet AGL
Clouds: scattered clouds at 4500 feet AGL
Weather: no significant weather forecast for this period

 AIRPORT MAP

 RUNWAY INFORMATION
Runway 05 Runway length 8102 ft Runway width 150 ft
Runway elevation 679 ft Runway displaced threshold 324 ft Runway heading 44
Runway 23 Runway length 8102 ft Runway width 150 ft
Runway elevation 721 ft Runway displaced threshold 0 ft Runway heading 224
Runway 14 Runway length 7161 ft Runway width 150 ft
Runway elevation 698 ft Runway displaced threshold 320 ft Runway heading 127
Runway 32 Runway length 7161 ft Runway width 150 ft
Runway elevation 709 ft Runway displaced threshold 720 ft Runway heading 307

 AIRPORT FREQUENCIES
Type A/D Name APP/DEP Frequency 126.15 MHZ
Type ATIS Name ATIS Frequency 135.35 MHZ
Type CLD Name CLNC DEL Frequency 124.7 MHZ
Type GND Name GND Frequency 121.9 MHZ
Type RDO Name RDO Frequency 122.6 MHZ
Type TWR Name TWR Frequency 120.5 MHZ

 AIRPORT NEAR NAVIGATION AIDS
Type NDB Name Klump Frequency 231 KHZ
Type VOR-DME Name Buffalo Frequency 116400 KHZ
Type NDB Name Plazz Frequency 204 KHZ



Powered by Virtual Airlines Manager [v2.6.2]